Time;durP1;ratioP1;P1;durP2;ratioP2;P2;SDS_P1;SDS_P2;PMS_P1;PMS_P2;Temp;Humidity;BMP_temperature;BMP_pressure;BME280_temperature;BME280_humidity;BME280_pressure;Samples;Min_cycle;Max_cycle;Signal;HPM_P1;HPM_P2
2023/09/15 00:00:58;;;;;;;;;;;;;;;;;;5092074;28;19918;-60
2023/09/15 00:03:24;;;;;;;;;;;;;;;;;;5079233;28;19912;-60
2023/09/15 00:05:50;;;;;;;;;;;;;;;;;;5090194;28;19969;-60
2023/09/15 00:08:16;;;;;;;;;;;;;;;;;;5093707;28;19954;-60
2023/09/15 00:10:44;;;;;;;;;;;;;;;;;;5080199;28;19963;-60
2023/09/15 00:13:10;;;;;;;;;;;;;;;;;;5073558;28;19920;-60
2023/09/15 00:15:36;;;;;;;;;;;;;;;;;;5083492;28;19916;-60
2023/09/15 00:18:02;;;;;;;;;;;;;;;;;;5088508;28;19912;-60
2023/09/15 00:20:27;;;;;;;;;;;;;;;;;;5082853;28;20582;-61
2023/09/15 00:22:53;;;;;;;;;;;;;;;;;;5080904;28;19923;-60
2023/09/15 00:25:19;;;;;;;;;;;;;;;;;;5086007;28;19955;-61
2023/09/15 00:27:45;;;;;;;;;;;;;;;;;;5090867;28;19916;-60
2023/09/15 00:30:11;;;;;;;;;;;;;;;;;;5084780;28;19927;-60
2023/09/15 00:32:37;;;;;;;;;;;;;;;;;;5087084;28;20002;-61
2023/09/15 00:35:03;;;;;;;;;;;;;;;;;;5085436;28;19954;-60
2023/09/15 00:37:29;;;;;;;;;;;;;;;;;;5074810;28;20356;-61
2023/09/15 00:39:55;;;;;;;;;;;;;;;;;;5078776;28;19922;-60
2023/09/15 00:42:21;;;;;;;;;;;;;;;;;;5077408;28;19916;-60
2023/09/15 00:44:47;;;;;;;;;;;;;;;;;;5076765;28;19912;-60
2023/09/15 00:47:13;;;;;;;;;;;;;;;;;;5088641;28;19998;-60
2023/09/15 00:49:39;;;;;;;;;;;;;;;;;;5091117;28;19999;-60
2023/09/15 00:52:05;;;;;;;;;;;;;;;;;;5075164;28;19916;-61
2023/09/15 00:54:31;;;;;;;;;;;;;;;;;;5089873;28;19922;-59
2023/09/15 00:56:59;;;;;;;;;;;;;;;;;;5085354;28;19919;-61
2023/09/15 00:59:25;;;;;;;;;;;;;;;;;;5072929;28;20436;-60
2023/09/15 01:01:51;;;;;;;;;;;;;;;;;;5076897;28;20010;-58
2023/09/15 01:04:17;;;;;;;;;;;;;;;;;;5086198;28;20283;-58
2023/09/15 01:06:43;;;;;;;;;;;;;;;;;;5081498;28;19943;-57
2023/09/15 01:09:11;;;;;;;;;;;;;;;;;;5082438;28;20691;-58
2023/09/15 01:11:36;;;;;;;;;;;;;;;;;;5084717;28;19920;-60
2023/09/15 01:14:02;;;;;;;;;;;;;;;;;;5091998;28;19970;-60
2023/09/15 01:16:28;;;;;;;;;;;;;;;;;;5088026;28;19912;-60
2023/09/15 01:18:54;;;;;;;;;;;;;;;;;;5079924;28;20391;-61
2023/09/15 01:21:20;;;;;;;;;;;;;;;;;;5078530;28;19966;-60
2023/09/15 01:23:46;;;;;;;;;;;;;;;;;;5072717;28;20016;-61
2023/09/15 01:26:12;;;;;;;;;;;;;;;;;;5080389;28;19934;-60
2023/09/15 01:28:38;;;;;;;;;;;;;;;;;;5088454;28;20010;-60
2023/09/15 01:31:04;;;;;;;;;;;;;;;;;;5088397;28;20291;-60
2023/09/15 01:33:30;;;;;;;;;;;;;;;;;;5074936;28;19919;-60
2023/09/15 01:35:56;;;;;;;;;;;;;;;;;;5081944;28;19975;-60
2023/09/15 01:38:22;;;;;;;;;;;;;;;;;;5081782;28;20395;-60
2023/09/15 01:40:48;;;;;;;;;;;;;;;;;;5076887;28;19916;-60
2023/09/15 01:43:13;;;;;;;;;;;;;;;;;;5077892;28;20323;-60
2023/09/15 01:45:39;;;;;;;;;;;;;;;;;;5079162;28;19936;-60
2023/09/15 01:48:05;;;;;;;;;;;;;;;;;;5072208;28;19998;-60
2023/09/15 01:50:32;;;;;;;;;;;;;;;;;;5082159;28;19912;-60
2023/09/15 01:52:58;;;;;;;;;;;;;;;;;;5076964;28;19965;-60
2023/09/15 01:55:24;;;;;;;;;;;;;;;;;;5077049;28;19916;-60
2023/09/15 01:57:50;;;;;;;;;;;;;;;;;;5072366;28;19962;-60
2023/09/15 02:00:16;;;;;;;;;;;;;;;;;;5080507;28;20395;-61
2023/09/15 02:02:42;;;;;;;;;;;;;;;;;;5077818;28;20323;-60
2023/09/15 02:05:08;;;;;;;;;;;;;;;;;;5071997;28;19958;-61
2023/09/15 02:07:34;;;;;;;;;;;;;;;;;;5071983;28;19909;-61
2023/09/15 02:10:00;;;;;;;;;;;;;;;;;;5085855;28;20017;-60
2023/09/15 02:12:26;;;;;;;;;;;;;;;;;;5092331;28;19951;-60
2023/09/15 02:14:52;;;;;;;;;;;;;;;;;;5075403;28;19974;-60
2023/09/15 02:17:17;;;;;;;;;;;;;;;;;;5072838;28;20333;-61
2023/09/15 02:19:43;;;;;;;;;;;;;;;;;;5083801;28;20444;-63
2023/09/15 02:22:09;;;;;;;;;;;;;;;;;;5073234;28;19920;-61
2023/09/15 02:24:35;;;;;;;;;;;;;;;;;;5072320;28;20348;-60
2023/09/15 02:27:01;;;;;;;;;;;;;;;;;;5087416;28;19908;-60
2023/09/15 02:29:27;;;;;;;;;;;;;;;;;;5089489;28;19916;-60
2023/09/15 02:31:54;;;;;;;;;;;;;;;;;;5095119;28;20291;-60
2023/09/15 02:34:20;;;;;;;;;;;;;;;;;;5079072;28;19923;-60
2023/09/15 02:36:46;;;;;;;;;;;;;;;;;;5089527;28;20370;-60
2023/09/15 02:39:12;;;;;;;;;;;;;;;;;;5088574;28;20041;-60
2023/09/15 02:41:38;;;;;;;;;;;;;;;;;;5084508;28;20269;-60
2023/09/15 02:44:04;;;;;;;;;;;;;;;;;;5075865;28;19908;-60
2023/09/15 02:46:30;;;;;;;;;;;;;;;;;;5092759;28;19908;-60
2023/09/15 02:48:56;;;;;;;;;;;;;;;;;;5095057;28;19919;-60
2023/09/15 02:51:22;;;;;;;;;;;;;;;;;;5084753;28;19919;-61
2023/09/15 02:53:48;;;;;;;;;;;;;;;;;;5093788;28;19959;-60
2023/09/15 02:56:14;;;;;;;;;;;;;;;;;;5090937;28;19915;-59
2023/09/15 02:58:40;;;;;;;;;;;;;;;;;;5074985;28;19916;-60
2023/09/15 03:01:06;;;;;;;;;;;;;;;;;;5089931;28;20010;-60
2023/09/15 03:03:31;;;;;;;;;;;;;;;;;;5095178;28;19915;-60
2023/09/15 03:05:57;;;;;;;;;;;;;;;;;;5083892;28;19912;-60
2023/09/15 03:08:23;;;;;;;;;;;;;;;;;;5088356;28;19919;-59
2023/09/15 03:10:49;;;;;;;;;;;;;;;;;;5087669;28;19912;-60
2023/09/15 03:13:15;;;;;;;;;;;;;;;;;;5093892;28;20011;-61
2023/09/15 03:15:41;;;;;;;;;;;;;;;;;;5075000;28;19991;-60
2023/09/15 03:18:07;;;;;;;;;;;;;;;;;;5075407;28;19944;-60
2023/09/15 03:20:33;;;;;;;;;;;;;;;;;;5073886;28;19920;-60
2023/09/15 03:22:59;;;;;;;;;;;;;;;;;;5074820;28;19971;-60
2023/09/15 03:25:25;;;;;;;;;;;;;;;;;;5091772;28;19916;-60
2023/09/15 03:27:53;;;;;;;;;;;;;;;;;;5093242;28;19963;-60
2023/09/15 03:30:19;;;;;;;;;;;;;;;;;;5094834;28;20007;-61
2023/09/15 03:32:45;;;;;;;;;;;;;;;;;;5093449;28;20013;-62
2023/09/15 03:35:10;;;;;;;;;;;;;;;;;;5076961;28;19913;-61
2023/09/15 03:37:36;;;;;;;;;;;;;;;;;;5073983;28;19908;-60
2023/09/15 03:40:04;;;;;;;;;;;;;;;;;;5077180;28;19923;-61
2023/09/15 03:42:30;;;;;;;;;;;;;;;;;;5080988;28;19917;-60
2023/09/15 03:44:56;;;;;;;;;;;;;;;;;;5084697;28;19951;-61
2023/09/15 03:47:22;;;;;;;;;;;;;;;;;;5089059;28;20329;-61
2023/09/15 03:49:48;;;;;;;;;;;;;;;;;;5077592;28;19927;-61
2023/09/15 03:52:14;;;;;;;;;;;;;;;;;;5075258;28;19909;-61
2023/09/15 03:54:40;;;;;;;;;;;;;;;;;;5089502;28;20019;-61
2023/09/15 03:57:06;;;;;;;;;;;;;;;;;;5090818;28;20276;-61
2023/09/15 03:59:33;;;;;;;;;;;;;;;;;;5084252;28;19947;-61
2023/09/15 04:01:59;;;;;;;;;;;;;;;;;;5073730;28;20399;-61
2023/09/15 04:04:25;;;;;;;;;;;;;;;;;;5080169;28;19952;-61
2023/09/15 04:06:51;;;;;;;;;;;;;;;;;;5089468;28;19917;-61
2023/09/15 04:09:19;;;;;;;;;;;;;;;;;;5084504;28;19909;-61
2023/09/15 04:11:45;;;;;;;;;;;;;;;;;;5080565;28;19912;-61
2023/09/15 04:14:11;;;;;;;;;;;;;;;;;;5080955;28;19957;-60
2023/09/15 04:16:37;;;;;;;;;;;;;;;;;;5075650;28;19916;-61
2023/09/15 04:19:03;;;;;;;;;;;;;;;;;;5073153;28;19936;-61
2023/09/15 04:21:29;;;;;;;;;;;;;;;;;;5088859;28;19920;-61
2023/09/15 04:23:55;;;;;;;;;;;;;;;;;;5080301;28;19950;-61
2023/09/15 04:26:21;;;;;;;;;;;;;;;;;;5072586;28;20363;-58
2023/09/15 04:28:47;;;;;;;;;;;;;;;;;;5081081;28;20008;-61
2023/09/15 04:31:13;;;;;;;;;;;;;;;;;;5081336;28;20045;-61
2023/09/15 04:33:39;;;;;;;;;;;;;;;;;;5077940;28;19947;-61
2023/09/15 04:36:05;;;;;;;;;;;;;;;;;;5080328;28;19963;-61
2023/09/15 04:38:31;;;;;;;;;;;;;;;;;;5082937;28;21454;-60
2023/09/15 04:40:56;;;;;;;;;;;;;;;;;;5079851;28;19920;-60
2023/09/15 04:43:22;;;;;;;;;;;;;;;;;;5075689;28;19954;-60
2023/09/15 04:45:48;;;;;;;;;;;;;;;;;;5075242;28;19912;-60
2023/09/15 04:48:14;;;;;;;;;;;;;;;;;;5077791;28;20405;-60
2023/09/15 04:50:40;;;;;;;;;;;;;;;;;;5074976;28;19948;-61
2023/09/15 04:53:09;;;;;;;;;;;;;;;;;;5080295;28;20002;-60
2023/09/15 04:55:35;;;;;;;;;;;;;;;;;;5078815;28;20022;-60
2023/09/15 04:58:01;;;;;;;;;;;;;;;;;;5079173;28;20341;-60
2023/09/15 05:00:27;;;;;;;;;;;;;;;;;;5072813;28;19965;-60
2023/09/15 05:02:53;;;;;;;;;;;;;;;;;;5078484;28;19977;-60
2023/09/15 05:05:19;;;;;;;;;;;;;;;;;;5079876;28;19966;-60
2023/09/15 05:07:45;;;;;;;;;;;;;;;;;;5076175;28;19989;-60
2023/09/15 05:10:11;;;;;;;;;;;;;;;;;;5078179;28;19923;-60
2023/09/15 05:12:37;;;;;;;;;;;;;;;;;;5074232;28;19924;-60
2023/09/15 05:15:03;;;;;;;;;;;;;;;;;;5081704;28;19963;-60
2023/09/15 05:17:29;;;;;;;;;;;;;;;;;;5079806;28;19920;-60
2023/09/15 05:19:56;;;;;;;;;;;;;;;;;;5080805;28;20022;-60
2023/09/15 05:22:22;;;;;;;;;;;;;;;;;;5078422;28;20315;-60
2023/09/15 05:24:48;;;;;;;;;;;;;;;;;;5072409;28;19958;-60
2023/09/15 05:27:13;;;;;;;;;;;;;;;;;;5077938;28;20050;-60
2023/09/15 05:29:39;;;;;;;;;;;;;;;;;;5077016;28;20344;-60
2023/09/15 05:32:05;;;;;;;;;;;;;;;;;;5073616;28;19952;-60
2023/09/15 05:34:31;;;;;;;;;;;;;;;;;;5079221;28;19921;-60
2023/09/15 05:36:57;;;;;;;;;;;;;;;;;;5073328;28;19951;-61
2023/09/15 05:39:23;;;;;;;;;;;;;;;;;;5075859;28;19996;-60
2023/09/15 05:41:49;;;;;;;;;;;;;;;;;;5075304;28;20341;-60
2023/09/15 05:44:18;;;;;;;;;;;;;;;;;;5075729;28;19962;-60
2023/09/15 05:46:44;;;;;;;;;;;;;;;;;;5077133;28;20339;-60
2023/09/15 05:49:09;;;;;;;;;;;;;;;;;;5080190;28;19994;-61
2023/09/15 05:51:35;;;;;;;;;;;;;;;;;;5074675;28;19913;-64
2023/09/15 05:54:02;;;;;;;;;;;;;;;;;;5077772;28;19963;-64
2023/09/15 05:56:29;;;;;;;;;;;;;;;;;;5074581;28;20288;-64
2023/09/15 05:58:55;;;;;;;;;;;;;;;;;;5080226;28;19942;-63
2023/09/15 06:01:21;;;;;;;;;;;;;;;;;;5084911;28;19908;-63
2023/09/15 06:03:48;;;;;;;;;;;;;;;;;;5080809;28;20337;-64
2023/09/15 06:06:14;;;;;;;;;;;;;;;;;;5087211;28;19962;-63
2023/09/15 06:08:40;;;;;;;;;;;;;;;;;;5080708;28;19955;-62
2023/09/15 06:11:06;;;;;;;;;;;;;;;;;;5089818;28;19919;-62
2023/09/15 06:13:32;;;;;;;;;;;;;;;;;;5088353;28;19917;-64
2023/09/15 06:15:58;;;;;;;;;;;;;;;;;;5080181;28;19919;-64
2023/09/15 06:18:24;;;;;;;;;;;;;;;;;;5083358;28;19939;-61
2023/09/15 06:20:51;;;;;;;;;;;;;;;;;;5086549;28;19937;-61
2023/09/15 06:23:17;;;;;;;;;;;;;;;;;;5082994;28;19939;-64
2023/09/15 06:25:46;;;;;;;;;;;;;;;;;;5088557;28;19919;-64
2023/09/15 06:28:12;;;;;;;;;;;;;;;;;;5083030;28;20537;-64
2023/09/15 06:30:38;;;;;;;;;;;;;;;;;;5081581;28;19915;-64
2023/09/15 06:33:04;;;;;;;;;;;;;;;;;;5086167;28;19999;-63
2023/09/15 06:35:30;;;;;;;;;;;;;;;;;;5088208;28;19912;-62
2023/09/15 06:37:55;;;;;;;;;;;;;;;;;;5078688;28;19962;-64
2023/09/15 06:40:21;;;;;;;;;;;;;;;;;;5073859;28;20337;-64
2023/09/15 06:42:47;;;;;;;;;;;;;;;;;;5082189;28;20003;-63
2023/09/15 06:45:13;;;;;;;;;;;;;;;;;;5079860;28;19931;-63
2023/09/15 06:47:39;;;;;;;;;;;;;;;;;;5075336;28;19912;-63
2023/09/15 06:50:05;;;;;;;;;;;;;;;;;;5072590;28;19964;-62
2023/09/15 06:52:31;;;;;;;;;;;;;;;;;;5074328;28;20352;-64
2023/09/15 06:54:57;;;;;;;;;;;;;;;;;;5087586;28;19957;-63
2023/09/15 06:57:23;;;;;;;;;;;;;;;;;;5079069;28;20356;-63
2023/09/15 06:59:49;;;;;;;;;;;;;;;;;;5080968;28;19908;-61
2023/09/15 07:02:15;;;;;;;;;;;;;;;;;;5081588;28;19962;-60
2023/09/15 07:04:43;;;;;;;;;;;;;;;;;;5081212;28;19915;-58
2023/09/15 07:07:09;;;;;;;;;;;;;;;;;;5078950;28;19919;-58
2023/09/15 07:09:35;;;;;;;;;;;;;;;;;;5074231;28;19912;-60
2023/09/15 07:12:01;;;;;;;;;;;;;;;;;;5094171;28;19931;-58
2023/09/15 07:14:27;;;;;;;;;;;;;;;;;;5091680;28;19912;-59
2023/09/15 07:16:53;;;;;;;;;;;;;;;;;;5073072;28;19981;-59
2023/09/15 07:19:19;;;;;;;;;;;;;;;;;;5075709;28;19909;-58
2023/09/15 07:21:45;;;;;;;;;;;;;;;;;;5084982;28;20420;-58
2023/09/15 07:24:11;;;;;;;;;;;;;;;;;;5085785;28;20049;-59
2023/09/15 07:26:37;;;;;;;;;;;;;;;;;;5082965;28;20371;-58
2023/09/15 07:29:06;;;;;;;;;;;;;;;;;;5080027;28;19913;-58
2023/09/15 07:31:32;;;;;;;;;;;;;;;;;;5083639;28;19916;-59
2023/09/15 07:33:58;;;;;;;;;;;;;;;;;;5076312;28;20031;-58
2023/09/15 07:36:24;;;;;;;;;;;;;;;;;;5083197;28;20377;-58
2023/09/15 07:38:50;;;;;;;;;;;;;;;;;;5077340;28;19919;-58
2023/09/15 07:41:16;;;;;;;;;;;;;;;;;;5075028;28;19995;-62
2023/09/15 07:43:43;;;;;;;;;;;;;;;;;;5090086;28;20348;-59
2023/09/15 07:46:09;;;;;;;;;;;;;;;;;;5083430;28;19954;-59
2023/09/15 07:48:35;;;;;;;;;;;;;;;;;;5077844;28;19985;-59
2023/09/15 07:51:01;;;;;;;;;;;;;;;;;;5086133;28;20388;-59
2023/09/15 07:53:27;;;;;;;;;;;;;;;;;;5084360;28;19959;-59
2023/09/15 07:55:53;;;;;;;;;;;;;;;;;;5080792;28;20340;-58
2023/09/15 07:58:18;;;;;;;;;;;;;;;;;;5073872;28;20394;-58
2023/09/15 08:00:45;;;;;;;;;;;;;;;;;;5081368;28;19912;-58
2023/09/15 08:03:11;;;;;;;;;;;;;;;;;;5085775;28;19912;-58
2023/09/15 08:05:36;;;;;;;;;;;;;;;;;;5083875;28;19908;-59
2023/09/15 08:08:02;;;;;;;;;;;;;;;;;;5085921;28;19956;-59
2023/09/15 08:10:29;;;;;;;;;;;;;;;;;;5072491;28;20166;-59
2023/09/15 08:12:55;;;;;;;;;;;;;;;;;;5076974;28;20307;-59
2023/09/15 08:15:21;;;;;;;;;;;;;;;;;;5089373;28;19955;-58
2023/09/15 08:17:47;;;;;;;;;;;;;;;;;;5079369;28;19908;-58
2023/09/15 08:20:13;;;;;;;;;;;;;;;;;;5078956;28;19952;-58
2023/09/15 08:22:39;;;;;;;;;;;;;;;;;;5087006;28;19912;-58
2023/09/15 08:25:05;;;;;;;;;;;;;;;;;;5082600;28;20322;-58
2023/09/15 08:27:31;;;;;;;;;;;;;;;;;;5078578;28;19908;-58
2023/09/15 08:29:57;;;;;;;;;;;;;;;;;;5078528;28;19954;-58
2023/09/15 08:32:23;;;;;;;;;;;;;;;;;;5078872;28;19908;-59
2023/09/15 08:34:49;;;;;;;;;;;;;;;;;;5083140;28;19955;-59
2023/09/15 08:37:15;;;;;;;;;;;;;;;;;;5071688;28;20271;-59
2023/09/15 08:39:41;;;;;;;;;;;;;;;;;;5074815;28;19923;-58
2023/09/15 08:42:06;;;;;;;;;;;;;;;;;;5084115;28;19912;-58
2023/09/15 08:44:32;;;;;;;;;;;;;;;;;;5080494;28;19908;-59
2023/09/15 08:47:00;;;;;;;;;;;;;;;;;;5080048;28;20028;-58
2023/09/15 08:49:26;;;;;;;;;;;;;;;;;;5088649;28;19943;-58
2023/09/15 08:51:52;;;;;;;;;;;;;;;;;;5078416;28;19955;-57
2023/09/15 08:54:17;;;;;;;;;;;;;;;;;;5082182;28;20279;-58
2023/09/15 08:56:43;;;;;;;;;;;;;;;;;;5082184;28;19912;-57
2023/09/15 08:59:09;;;;;;;;;;;;;;;;;;5071631;28;19915;-59
2023/09/15 09:01:35;;;;;;;;;;;;;;;;;;5085280;28;20291;-59
2023/09/15 09:04:01;;;;;;;;;;;;;;;;;;5071827;28;19908;-59
2023/09/15 09:06:27;;;;;;;;;;;;;;;;;;5073463;28;19919;-58
2023/09/15 09:08:53;;;;;;;;;;;;;;;;;;5083615;28;19909;-58
2023/09/15 09:11:19;;;;;;;;;;;;;;;;;;5086721;28;19958;-58
2023/09/15 09:13:45;;;;;;;;;;;;;;;;;;5087219;28;19916;-58
2023/09/15 09:16:10;;;;;;;;;;;;;;;;;;5081865;28;20389;-58
2023/09/15 09:18:36;;;;;;;;;;;;;;;;;;5081789;28;20011;-58
2023/09/15 09:21:02;;;;;;;;;;;;;;;;;;5074160;28;19944;-58
2023/09/15 09:23:28;;;;;;;;;;;;;;;;;;5082446;28;19999;-59
2023/09/15 09:25:54;;;;;;;;;;;;;;;;;;5077271;28;19948;-58
2023/09/15 09:28:21;;;;;;;;;;;;;;;;;;5080955;28;19919;-58
2023/09/15 09:30:47;;;;;;;;;;;;;;;;;;5077618;28;19912;-59
2023/09/15 09:33:13;;;;;;;;;;;;;;;;;;5082542;28;20433;-58
2023/09/15 09:35:39;;;;;;;;;;;;;;;;;;5085406;28;19912;-58
2023/09/15 09:38:05;;;;;;;;;;;;;;;;;;5088500;28;19985;-58
2023/09/15 09:40:32;;;;;;;;;;;;;;;;;;5077075;28;20451;-58
2023/09/15 09:42:58;;;;;;;;;;;;;;;;;;5088732;28;19953;-58
2023/09/15 09:45:24;;;;;;;;;;;;;;;;;;5079393;28;19955;-58
2023/09/15 09:47:50;;;;;;;;;;;;;;;;;;5080165;28;19941;-58
2023/09/15 09:50:16;;;;;;;;;;;;;;;;;;5077831;28;19963;-58
2023/09/15 09:52:42;;;;;;;;;;;;;;;;;;5087685;28;19912;-58
2023/09/15 09:55:08;;;;;;;;;;;;;;;;;;5085438;28;19961;-57
2023/09/15 09:57:33;;;;;;;;;;;;;;;;;;5088711;28;20541;-58
2023/09/15 10:00:03;;;;;;;;;;;;;;;;;;5086778;28;19909;-59
2023/09/15 10:02:29;;;;;;;;;;;;;;;;;;5093542;28;19915;-59
2023/09/15 10:04:55;;;;;;;;;;;;;;;;;;5091995;28;19916;-58
2023/09/15 10:07:21;;;;;;;;;;;;;;;;;;5087217;28;19915;-58
2023/09/15 10:09:47;;;;;;;;;;;;;;;;;;5090060;28;19912;-58
2023/09/15 10:12:13;;;;;;;;;;;;;;;;;;5078559;28;19985;-58
2023/09/15 10:14:39;;;;;;;;;;;;;;;;;;5092650;28;20007;-59
2023/09/15 10:17:05;;;;;;;;;;;;;;;;;;5085599;28;19923;-58
2023/09/15 10:19:31;;;;;;;;;;;;;;;;;;5081133;28;20011;-58
2023/09/15 10:21:57;;;;;;;;;;;;;;;;;;5096384;28;19959;-59
2023/09/15 10:24:23;;;;;;;;;;;;;;;;;;5080299;28;20008;-59
2023/09/15 10:26:49;;;;;;;;;;;;;;;;;;5088606;28;19915;-58
2023/09/15 10:29:15;;;;;;;;;;;;;;;;;;5084180;28;19916;-59
2023/09/15 10:31:41;;;;;;;;;;;;;;;;;;5087078;28;20279;-63
2023/09/15 10:34:07;;;;;;;;;;;;;;;;;;5089742;28;19975;-63
2023/09/15 10:36:33;;;;;;;;;;;;;;;;;;5087198;28;20010;-64
2023/09/15 10:38:59;;;;;;;;;;;;;;;;;;5080265;28;20387;-63
2023/09/15 10:41:25;;;;;;;;;;;;;;;;;;5078997;28;19913;-63
2023/09/15 10:43:51;;;;;;;;;;;;;;;;;;5090943;28;19932;-64
2023/09/15 10:46:17;;;;;;;;;;;;;;;;;;5089212;28;19916;-64
2023/09/15 10:48:44;;;;;;;;;;;;;;;;;;5089321;28;19944;-64
2023/09/15 10:51:10;;;;;;;;;;;;;;;;;;5079030;28;19913;-64
2023/09/15 10:53:36;;;;;;;;;;;;;;;;;;5087798;28;20329;-64
2023/09/15 10:56:01;;;;;;;;;;;;;;;;;;5085095;28;20228;-64
2023/09/15 10:58:27;;;;;;;;;;;;;;;;;;5080552;28;20007;-64
2023/09/15 11:00:53;;;;;;;;;;;;;;;;;;5084291;28;19919;-63
2023/09/15 11:03:19;;;;;;;;;;;;;;;;;;5081789;28;19974;-63
2023/09/15 11:05:45;;;;;;;;;;;;;;;;;;5083701;28;20380;-64
2023/09/15 11:08:11;;;;;;;;;;;;;;;;;;5076957;28;19951;-63
2023/09/15 11:10:37;;;;;;;;;;;;;;;;;;5083429;28;20081;-64
2023/09/15 11:13:03;;;;;;;;;;;;;;;;;;5087333;28;20357;-64
2023/09/15 11:15:29;;;;;;;;;;;;;;;;;;5082859;28;19975;-63
2023/09/15 11:17:55;;;;;;;;;;;;;;;;;;5075783;28;19971;-63
2023/09/15 11:20:21;;;;;;;;;;;;;;;;;;5086899;28;19967;-63
2023/09/15 11:22:47;;;;;;;;;;;;;;;;;;5080050;28;19963;-63
2023/09/15 11:25:12;;;;;;;;;;;;;;;;;;5072923;28;20038;-60
2023/09/15 11:27:38;;;;;;;;;;;;;;;;;;5077785;28;20328;-64
2023/09/15 11:30:04;;;;;;;;;;;;;;;;;;5089545;28;19912;-64
2023/09/15 11:32:30;;;;;;;;;;;;;;;;;;5074158;28;19984;-63
2023/09/15 11:34:56;;;;;;;;;;;;;;;;;;5075813;28;20018;-64
2023/09/15 11:37:22;;;;;;;;;;;;;;;;;;5081472;28;19912;-63
2023/09/15 11:39:48;;;;;;;;;;;;;;;;;;5080887;28;19919;-61
2023/09/15 11:42:14;;;;;;;;;;;;;;;;;;5082535;28;20003;-59
2023/09/15 11:44:40;;;;;;;;;;;;;;;;;;5088465;28;19912;-60
2023/09/15 11:47:08;;;;;;;;;;;;;;;;;;5088022;28;19923;-58
2023/09/15 11:49:33;;;;;;;;;;;;;;;;;;5081138;28;19916;-59
2023/09/15 11:51:59;;;;;;;;;;;;;;;;;;5079754;28;20392;-58
2023/09/15 11:54:25;;;;;;;;;;;;;;;;;;5075143;28;19916;-58
2023/09/15 11:56:53;;;;;;;;;;;;;;;;;;5086522;28;19993;-58
2023/09/15 11:59:20;;;;;;;;;;;;;;;;;;5083945;28;19919;-59
2023/09/15 12:01:46;;;;;;;;;;;;;;;;;;5080494;28;19920;-57
2023/09/15 12:04:12;;;;;;;;;;;;;;;;;;5071767;28;20372;-56
2023/09/15 12:06:40;;;;;;;;;;;;;;;;;;5078634;28;19951;-57
2023/09/15 12:09:06;;;;;;;;;;;;;;;;;;5081747;28;19917;-56
2023/09/15 12:11:33;;;;;;;;;;;;;;;;;;5076347;28;19919;-57
2023/09/15 12:14:00;;;;;;;;;;;;;;;;;;5081819;28;19920;-58
2023/09/15 12:16:31;;;;;;;;;;;;;;;;;;5093352;28;19938;-59
2023/09/15 12:18:57;;;;;;;;;;;;;;;;;;5087737;28;19962;-57
2023/09/15 12:21:28;;;;;;;;;;;;;;;;;;5081951;28;19925;-57
2023/09/15 12:23:54;;;;;;;;;;;;;;;;;;5079187;28;19916;-57
2023/09/15 12:26:20;;;;;;;;;;;;;;;;;;5082030;28;19920;-58
2023/09/15 12:28:46;;;;;;;;;;;;;;;;;;5088034;28;20303;-57
2023/09/15 12:31:12;;;;;;;;;;;;;;;;;;5077643;28;19912;-58
2023/09/15 12:33:38;;;;;;;;;;;;;;;;;;5072206;28;19913;-57
2023/09/15 12:36:04;;;;;;;;;;;;;;;;;;5083332;28;20224;-58
2023/09/15 12:38:30;;;;;;;;;;;;;;;;;;5075221;28;19974;-57
2023/09/15 12:40:56;;;;;;;;;;;;;;;;;;5081164;28;20003;-58
2023/09/15 12:43:22;;;;;;;;;;;;;;;;;;5073024;28;19912;-58
2023/09/15 12:45:48;;;;;;;;;;;;;;;;;;5083549;28;19951;-57
2023/09/15 12:48:14;;;;;;;;;;;;;;;;;;5077252;28;20415;-58
2023/09/15 12:50:40;;;;;;;;;;;;;;;;;;5081734;28;19919;-58
2023/09/15 12:53:06;;;;;;;;;;;;;;;;;;5085365;28;20573;-58
2023/09/15 12:55:31;;;;;;;;;;;;;;;;;;5071636;28;19915;-59
2023/09/15 12:57:57;;;;;;;;;;;;;;;;;;5083710;28;19962;-57
2023/09/15 13:00:23;;;;;;;;;;;;;;;;;;5088932;28;20340;-57
2023/09/15 13:02:49;;;;;;;;;;;;;;;;;;5079319;28;20047;-57
2023/09/15 13:05:15;;;;;;;;;;;;;;;;;;5073928;28;20384;-57
2023/09/15 13:07:42;;;;;;;;;;;;;;;;;;5086279;28;20544;-58
2023/09/15 13:10:08;;;;;;;;;;;;;;;;;;5079961;28;20325;-58
2023/09/15 13:12:34;;;;;;;;;;;;;;;;;;5085158;28;19912;-57
2023/09/15 13:15:00;;;;;;;;;;;;;;;;;;5079409;28;20014;-58
2023/09/15 13:17:26;;;;;;;;;;;;;;;;;;5085607;28;19934;-57
2023/09/15 13:19:52;;;;;;;;;;;;;;;;;;5086944;28;20000;-57
2023/09/15 13:22:18;;;;;;;;;;;;;;;;;;5070584;28;19921;-57
2023/09/15 13:24:44;;;;;;;;;;;;;;;;;;5081666;28;19916;-58
2023/09/15 13:27:10;;;;;;;;;;;;;;;;;;5083398;28;19952;-57
2023/09/15 13:29:37;;;;;;;;;;;;;;;;;;5086040;28;19965;-57
2023/09/15 13:32:03;;;;;;;;;;;;;;;;;;5078413;28;20310;-57
2023/09/15 13:34:29;;;;;;;;;;;;;;;;;;5081485;28;19970;-58
2023/09/15 13:36:56;;;;;;;;;;;;;;;;;;5084816;28;20383;-57
2023/09/15 13:39:23;;;;;;;;;;;;;;;;;;5077518;28;20287;-57
2023/09/15 13:41:49;;;;;;;;;;;;;;;;;;5076706;28;20363;-58
2023/09/15 13:44:15;;;;;;;;;;;;;;;;;;5080599;28;19912;-58
2023/09/15 13:46:41;;;;;;;;;;;;;;;;;;5084176;28;20340;-58
2023/09/15 13:49:06;;;;;;;;;;;;;;;;;;5080881;28;19980;-57
2023/09/15 13:51:32;;;;;;;;;;;;;;;;;;5074215;28;20273;-57
2023/09/15 13:53:58;;;;;;;;;;;;;;;;;;5078333;28;20007;-58
2023/09/15 13:56:24;;;;;;;;;;;;;;;;;;5073362;28;19923;-57
2023/09/15 13:58:50;;;;;;;;;;;;;;;;;;5072142;28;19915;-58
2023/09/15 14:01:16;;;;;;;;;;;;;;;;;;5077431;28;19961;-63
2023/09/15 14:03:44;;;;;;;;;;;;;;;;;;5086408;28;19915;-61
2023/09/15 14:06:10;;;;;;;;;;;;;;;;;;5076783;28;20283;-62
2023/09/15 14:08:36;;;;;;;;;;;;;;;;;;5074132;28;19932;-63
2023/09/15 14:11:02;;;;;;;;;;;;;;;;;;5075513;28;20011;-63
2023/09/15 14:13:28;;;;;;;;;;;;;;;;;;5073850;28;19973;-62
2023/09/15 14:15:54;;;;;;;;;;;;;;;;;;5074959;28;19956;-62
2023/09/15 14:18:20;;;;;;;;;;;;;;;;;;5082540;28;19966;-63
2023/09/15 14:20:46;;;;;;;;;;;;;;;;;;5085210;28;19924;-63
2023/09/15 14:23:11;;;;;;;;;;;;;;;;;;5077125;28;19996;-63
2023/09/15 14:25:37;;;;;;;;;;;;;;;;;;5082972;28;19912;-62
2023/09/15 14:28:03;;;;;;;;;;;;;;;;;;5083785;28;19919;-62
2023/09/15 14:30:29;;;;;;;;;;;;;;;;;;5080034;28;19916;-62
2023/09/15 14:32:56;;;;;;;;;;;;;;;;;;5086031;28;19986;-63
2023/09/15 14:35:22;;;;;;;;;;;;;;;;;;5082510;28;19927;-61
2023/09/15 14:37:48;;;;;;;;;;;;;;;;;;5078908;28;19912;-63
2023/09/15 14:40:14;;;;;;;;;;;;;;;;;;5073515;28;20370;-63
2023/09/15 14:42:40;;;;;;;;;;;;;;;;;;5081894;28;19908;-62
2023/09/15 14:45:06;;;;;;;;;;;;;;;;;;5080433;28;20325;-62
2023/09/15 14:47:32;;;;;;;;;;;;;;;;;;5081328;28;19922;-62
2023/09/15 14:49:58;;;;;;;;;;;;;;;;;;5092776;28;20007;-62
2023/09/15 14:52:24;;;;;;;;;;;;;;;;;;5079738;28;19955;-63
2023/09/15 14:54:50;;;;;;;;;;;;;;;;;;5082380;28;19920;-63
2023/09/15 14:57:15;;;;;;;;;;;;;;;;;;5080856;28;19920;-62
2023/09/15 14:59:42;;;;;;;;;;;;;;;;;;5074333;28;19912;-62
2023/09/15 15:02:09;;;;;;;;;;;;;;;;;;5084457;28;20010;-62
2023/09/15 15:04:35;;;;;;;;;;;;;;;;;;5076667;28;19944;-63
2023/09/15 15:07:02;;;;;;;;;;;;;;;;;;5079612;28;20331;-61
2023/09/15 15:09:28;;;;;;;;;;;;;;;;;;5083363;28;20057;-62
2023/09/15 15:11:55;;;;;;;;;;;;;;;;;;5081209;28;19921;-60
2023/09/15 15:14:21;;;;;;;;;;;;;;;;;;5084644;28;19935;-61
2023/09/15 15:16:47;;;;;;;;;;;;;;;;;;5084533;28;19961;-61
2023/09/15 15:19:13;;;;;;;;;;;;;;;;;;5081390;28;20271;-61
2023/09/15 15:21:39;;;;;;;;;;;;;;;;;;5083495;28;19920;-60
2023/09/15 15:24:06;;;;;;;;;;;;;;;;;;5079999;28;21561;-60
2023/09/15 15:26:32;;;;;;;;;;;;;;;;;;5084547;28;19946;-60
2023/09/15 15:28:58;;;;;;;;;;;;;;;;;;5079987;28;20000;-60
2023/09/15 15:31:24;;;;;;;;;;;;;;;;;;5086506;28;19919;-60
2023/09/15 15:33:53;;;;;;;;;;;;;;;;;;5084467;28;19963;-60
2023/09/15 15:36:23;;;;;;;;;;;;;;;;;;5084439;28;19908;-60
2023/09/15 15:38:49;;;;;;;;;;;;;;;;;;5085685;28;20006;-60
2023/09/15 15:41:15;;;;;;;;;;;;;;;;;;5084140;28;20002;-60
2023/09/15 15:43:40;;;;;;;;;;;;;;;;;;5081798;28;19919;-60
2023/09/15 15:46:06;;;;;;;;;;;;;;;;;;5084008;28;20285;-60
2023/09/15 15:48:32;;;;;;;;;;;;;;;;;;5080628;28;20042;-60
2023/09/15 15:51:02;;;;;;;;;;;;;;;;;;5083014;28;19942;-59
2023/09/15 15:53:28;;;;;;;;;;;;;;;;;;5080579;28;20052;-61
2023/09/15 15:55:54;;;;;;;;;;;;;;;;;;5082090;28;20393;-62
2023/09/15 15:58:20;;;;;;;;;;;;;;;;;;5087516;28;20053;-62
2023/09/15 16:00:46;;;;;;;;;;;;;;;;;;5079860;28;20019;-62
2023/09/15 16:03:12;;;;;;;;;;;;;;;;;;5076277;28;20303;-63
2023/09/15 16:05:38;;;;;;;;;;;;;;;;;;5076718;28;19918;-62
2023/09/15 16:08:04;;;;;;;;;;;;;;;;;;5082287;28;19960;-62
2023/09/15 16:10:30;;;;;;;;;;;;;;;;;;5087468;28;19947;-63
2023/09/15 16:12:56;;;;;;;;;;;;;;;;;;5074519;28;20419;-62
2023/09/15 16:15:22;;;;;;;;;;;;;;;;;;5077873;28;19947;-62
2023/09/15 16:17:48;;;;;;;;;;;;;;;;;;5072981;28;20341;-62
2023/09/15 16:20:13;;;;;;;;;;;;;;;;;;5081946;28;20061;-63
2023/09/15 16:22:39;;;;;;;;;;;;;;;;;;5080113;28;19912;-62
2023/09/15 16:25:07;;;;;;;;;;;;;;;;;;5083170;28;19959;-62
2023/09/15 16:27:33;;;;;;;;;;;;;;;;;;5079115;28;19912;-62
2023/09/15 16:29:59;;;;;;;;;;;;;;;;;;5081056;28;19919;-62
2023/09/15 16:32:25;;;;;;;;;;;;;;;;;;5075586;28;20542;-62
2023/09/15 16:34:53;;;;;;;;;;;;;;;;;;5076904;28;19969;-62
2023/09/15 16:37:18;;;;;;;;;;;;;;;;;;5075231;28;20431;-62